SBJP/JPA METAR and TAF weather

Enter ICAO airport designator
Station Type Date Time Source
SBJP METAR 2018/12/15 22:00 UTC NOAA

SBJP 152200Z 11007KT CAVOK 25/21 Q1016


Station Type Date Time Source
SBJP Decoded METAR 2018/12/15 22:00 UTC NOAA

Joao Pessoa, Brazil (SBJP) 07-06S 034-52W
Dec 15, 2018 - 05:00 PM EST / 2018.12.15 2200 UTC
Wind: from the ESE (110 degrees) at 8 MPH (7 KT):0
Visibility: greater than 7 mile(s):0
Temperature: 77 F (25 C)
Dew Point: 69 F (21 C)
Relative Humidity: 78%
Pressure (altimeter): 30.00 in. Hg (1016 hPa)
ob: SBJP 152200Z 11007KT CAVOK 25/21 Q1016
cycle: 22

Station Type Date Time Source
SBJP TAF 2018/12/15 18:15 UTC NOAA

TAF TAF SBJP 151500Z 1518/1618 13015KT 9999 SCT025 TN23/1607Z TX30/1614Z
BECMG 1522/1523 14008KT
BECMG 1610/1612 13014KT
RMK PEU


Example: see airport list